sensor_id;sensor_type;location;lat;lon;timestamp;P1;durP1;ratioP1;P2;durP2;ratioP2
59856;SDS011;45733;52.668;6.860;2023-08-20T00:01:43;0.90;;;0.90;;
59856;SDS011;45733;52.668;6.860;2023-08-20T00:04:09;0.77;;;0.77;;
59856;SDS011;45733;52.668;6.860;2023-08-20T00:06:35;0.80;;;0.80;;
59856;SDS011;45733;52.668;6.860;2023-08-20T00:09:01;0.77;;;0.77;;
59856;SDS011;45733;52.668;6.860;2023-08-20T00:11:26;0.80;;;0.80;;
59856;SDS011;45733;52.668;6.860;2023-08-20T00:13:52;0.77;;;0.77;;
59856;SDS011;45733;52.668;6.860;2023-08-20T00:16:18;0.73;;;0.73;;
59856;SDS011;45733;52.668;6.860;2023-08-20T00:18:44;0.68;;;0.68;;
59856;SDS011;45733;52.668;6.860;2023-08-20T00:21:10;0.70;;;0.70;;
59856;SDS011;45733;52.668;6.860;2023-08-20T00:23:36;0.73;;;0.73;;
59856;SDS011;45733;52.668;6.860;2023-08-20T00:26:02;0.85;;;0.85;;
59856;SDS011;45733;52.668;6.860;2023-08-20T00:28:28;0.88;;;0.88;;
59856;SDS011;45733;52.668;6.860;2023-08-20T00:30:54;0.80;;;0.80;;
59856;SDS011;45733;52.668;6.860;2023-08-20T00:33:19;0.80;;;0.80;;
59856;SDS011;45733;52.668;6.860;2023-08-20T00:35:45;0.80;;;0.80;;
59856;SDS011;45733;52.668;6.860;2023-08-20T00:38:11;0.80;;;0.80;;
59856;SDS011;45733;52.668;6.860;2023-08-20T00:40:36;0.80;;;0.80;;
59856;SDS011;45733;52.668;6.860;2023-08-20T00:43:02;0.77;;;0.77;;
59856;SDS011;45733;52.668;6.860;2023-08-20T00:45:28;0.93;;;0.93;;
59856;SDS011;45733;52.668;6.860;2023-08-20T00:47:53;0.88;;;0.88;;
59856;SDS011;45733;52.668;6.860;2023-08-20T00:50:19;0.82;;;0.82;;
59856;SDS011;45733;52.668;6.860;2023-08-20T00:52:46;0.82;;;0.82;;
59856;SDS011;45733;52.668;6.860;2023-08-20T00:55:12;0.90;;;0.90;;
59856;SDS011;45733;52.668;6.860;2023-08-20T00:57:38;0.73;;;0.73;;
59856;SDS011;45733;52.668;6.860;2023-08-20T01:00:05;0.63;;;0.63;;
59856;SDS011;45733;52.668;6.860;2023-08-20T01:02:32;0.68;;;0.68;;
59856;SDS011;45733;52.668;6.860;2023-08-20T01:04:59;0.70;;;0.70;;
59856;SDS011;45733;52.668;6.860;2023-08-20T01:07:44;0.60;;;0.60;;
59856;SDS011;45733;52.668;6.860;2023-08-20T01:13:04;0.50;;;0.50;;
59856;SDS011;45733;52.668;6.860;2023-08-20T01:15:31;0.60;;;0.60;;
59856;SDS011;45733;52.668;6.860;2023-08-20T01:17:59;0.52;;;0.52;;
59856;SDS011;45733;52.668;6.860;2023-08-20T01:20:27;0.50;;;0.50;;
59856;SDS011;45733;52.668;6.860;2023-08-20T01:28:37;0.60;;;0.60;;
59856;SDS011;45733;52.668;6.860;2023-08-20T01:31:04;0.60;;;0.60;;
59856;SDS011;45733;52.668;6.860;2023-08-20T01:33:32;0.55;;;0.55;;
59856;SDS011;45733;52.668;6.860;2023-08-20T01:35:59;0.60;;;0.60;;
59856;SDS011;45733;52.668;6.860;2023-08-20T01:38:24;0.55;;;0.55;;
59856;SDS011;45733;52.668;6.860;2023-08-20T01:40:50;0.65;;;0.65;;
59856;SDS011;45733;52.668;6.860;2023-08-20T01:43:16;0.65;;;0.65;;
59856;SDS011;45733;52.668;6.860;2023-08-20T01:45:42;0.63;;;0.63;;
59856;SDS011;45733;52.668;6.860;2023-08-20T01:48:08;0.65;;;0.65;;
59856;SDS011;45733;52.668;6.860;2023-08-20T01:50:34;0.63;;;0.63;;
59856;SDS011;45733;52.668;6.860;2023-08-20T01:53:00;0.65;;;0.65;;
59856;SDS011;45733;52.668;6.860;2023-08-20T01:55:27;0.65;;;0.65;;
59856;SDS011;45733;52.668;6.860;2023-08-20T01:57:53;0.68;;;0.68;;
59856;SDS011;45733;52.668;6.860;2023-08-20T02:00:19;0.73;;;0.73;;
59856;SDS011;45733;52.668;6.860;2023-08-20T02:02:44;0.73;;;0.73;;
59856;SDS011;45733;52.668;6.860;2023-08-20T02:05:10;0.75;;;0.75;;
59856;SDS011;45733;52.668;6.860;2023-08-20T02:07:36;0.75;;;0.75;;
59856;SDS011;45733;52.668;6.860;2023-08-20T02:10:02;0.68;;;0.68;;
59856;SDS011;45733;52.668;6.860;2023-08-20T02:12:28;0.77;;;0.77;;
59856;SDS011;45733;52.668;6.860;2023-08-20T02:14:53;0.75;;;0.75;;
59856;SDS011;45733;52.668;6.860;2023-08-20T02:17:19;0.70;;;0.70;;
59856;SDS011;45733;52.668;6.860;2023-08-20T02:19:45;0.68;;;0.68;;
59856;SDS011;45733;52.668;6.860;2023-08-20T02:22:10;0.77;;;0.77;;
59856;SDS011;45733;52.668;6.860;2023-08-20T02:24:36;0.65;;;0.65;;
59856;SDS011;45733;52.668;6.860;2023-08-20T02:27:02;0.60;;;0.60;;
59856;SDS011;45733;52.668;6.860;2023-08-20T02:29:28;0.60;;;0.60;;
59856;SDS011;45733;52.668;6.860;2023-08-20T02:31:54;0.68;;;0.68;;
59856;SDS011;45733;52.668;6.860;2023-08-20T02:34:20;0.65;;;0.65;;
59856;SDS011;45733;52.668;6.860;2023-08-20T02:36:45;0.65;;;0.65;;
59856;SDS011;45733;52.668;6.860;2023-08-20T02:39:12;0.65;;;0.65;;
59856;SDS011;45733;52.668;6.860;2023-08-20T02:41:38;0.63;;;0.63;;
59856;SDS011;45733;52.668;6.860;2023-08-20T02:44:04;0.57;;;0.57;;
59856;SDS011;45733;52.668;6.860;2023-08-20T02:46:30;0.63;;;0.63;;
59856;SDS011;45733;52.668;6.860;2023-08-20T02:48:55;0.57;;;0.57;;
59856;SDS011;45733;52.668;6.860;2023-08-20T02:51:21;0.60;;;0.60;;
59856;SDS011;45733;52.668;6.860;2023-08-20T02:53:47;0.63;;;0.63;;
59856;SDS011;45733;52.668;6.860;2023-08-20T02:56:13;0.57;;;0.57;;
59856;SDS011;45733;52.668;6.860;2023-08-20T02:58:39;0.57;;;0.57;;
59856;SDS011;45733;52.668;6.860;2023-08-20T03:01:04;0.60;;;0.60;;
59856;SDS011;45733;52.668;6.860;2023-08-20T03:03:30;0.55;;;0.55;;
59856;SDS011;45733;52.668;6.860;2023-08-20T03:05:56;0.60;;;0.60;;
59856;SDS011;45733;52.668;6.860;2023-08-20T03:08:22;0.60;;;0.60;;
59856;SDS011;45733;52.668;6.860;2023-08-20T03:10:47;0.60;;;0.60;;
59856;SDS011;45733;52.668;6.860;2023-08-20T03:13:13;0.60;;;0.60;;
59856;SDS011;45733;52.668;6.860;2023-08-20T03:15:39;0.60;;;0.60;;
59856;SDS011;45733;52.668;6.860;2023-08-20T03:18:05;0.60;;;0.60;;
59856;SDS011;45733;52.668;6.860;2023-08-20T03:20:31;0.60;;;0.60;;
59856;SDS011;45733;52.668;6.860;2023-08-20T03:22:57;0.60;;;0.60;;
59856;SDS011;45733;52.668;6.860;2023-08-20T03:25:23;0.60;;;0.60;;
59856;SDS011;45733;52.668;6.860;2023-08-20T03:27:49;0.57;;;0.57;;
59856;SDS011;45733;52.668;6.860;2023-08-20T03:30:16;0.60;;;0.60;;
59856;SDS011;45733;52.668;6.860;2023-08-20T03:32:42;0.60;;;0.60;;
59856;SDS011;45733;52.668;6.860;2023-08-20T03:35:08;0.60;;;0.60;;
59856;SDS011;45733;52.668;6.860;2023-08-20T03:37:34;0.60;;;0.60;;
59856;SDS011;45733;52.668;6.860;2023-08-20T03:40:00;0.60;;;0.60;;
59856;SDS011;45733;52.668;6.860;2023-08-20T03:42:25;0.60;;;0.60;;
59856;SDS011;45733;52.668;6.860;2023-08-20T03:44:51;0.60;;;0.60;;
59856;SDS011;45733;52.668;6.860;2023-08-20T03:47:17;0.60;;;0.60;;
59856;SDS011;45733;52.668;6.860;2023-08-20T03:49:45;0.60;;;0.60;;
59856;SDS011;45733;52.668;6.860;2023-08-20T03:52:13;0.60;;;0.60;;
59856;SDS011;45733;52.668;6.860;2023-08-20T03:54:38;0.60;;;0.60;;
59856;SDS011;45733;52.668;6.860;2023-08-20T03:57:04;0.60;;;0.60;;
59856;SDS011;45733;52.668;6.860;2023-08-20T03:59:30;0.60;;;0.60;;
59856;SDS011;45733;52.668;6.860;2023-08-20T04:01:56;0.60;;;0.60;;
59856;SDS011;45733;52.668;6.860;2023-08-20T04:04:22;0.60;;;0.60;;
59856;SDS011;45733;52.668;6.860;2023-08-20T04:06:47;0.60;;;0.60;;
59856;SDS011;45733;52.668;6.860;2023-08-20T04:09:13;0.60;;;0.60;;
59856;SDS011;45733;52.668;6.860;2023-08-20T04:11:39;0.60;;;0.60;;
59856;SDS011;45733;52.668;6.860;2023-08-20T04:14:04;0.60;;;0.60;;
59856;SDS011;45733;52.668;6.860;2023-08-20T04:16:30;0.60;;;0.60;;
59856;SDS011;45733;52.668;6.860;2023-08-20T04:18:56;0.60;;;0.60;;
59856;SDS011;45733;52.668;6.860;2023-08-20T04:21:22;0.60;;;0.60;;
59856;SDS011;45733;52.668;6.860;2023-08-20T04:23:47;0.60;;;0.60;;
59856;SDS011;45733;52.668;6.860;2023-08-20T04:26:13;0.60;;;0.60;;
59856;SDS011;45733;52.668;6.860;2023-08-20T04:28:39;0.60;;;0.60;;
59856;SDS011;45733;52.668;6.860;2023-08-20T04:31:04;0.60;;;0.60;;
59856;SDS011;45733;52.668;6.860;2023-08-20T04:33:30;0.60;;;0.60;;
59856;SDS011;45733;52.668;6.860;2023-08-20T04:35:56;0.60;;;0.60;;
59856;SDS011;45733;52.668;6.860;2023-08-20T04:38:21;0.60;;;0.60;;
59856;SDS011;45733;52.668;6.860;2023-08-20T04:40:48;0.50;;;0.50;;
59856;SDS011;45733;52.668;6.860;2023-08-20T04:43:14;0.60;;;0.60;;
59856;SDS011;45733;52.668;6.860;2023-08-20T04:45:40;0.60;;;0.60;;
59856;SDS011;45733;52.668;6.860;2023-08-20T04:48:07;0.60;;;0.60;;
59856;SDS011;45733;52.668;6.860;2023-08-20T04:50:33;0.60;;;0.60;;
59856;SDS011;45733;52.668;6.860;2023-08-20T04:52:58;0.70;;;0.70;;
59856;SDS011;45733;52.668;6.860;2023-08-20T04:55:25;0.60;;;0.60;;
59856;SDS011;45733;52.668;6.860;2023-08-20T04:57:51;0.70;;;0.70;;
59856;SDS011;45733;52.668;6.860;2023-08-20T05:00:17;0.68;;;0.68;;
59856;SDS011;45733;52.668;6.860;2023-08-20T05:02:45;0.70;;;0.70;;
59856;SDS011;45733;52.668;6.860;2023-08-20T05:05:11;0.60;;;0.60;;
59856;SDS011;45733;52.668;6.860;2023-08-20T05:07:37;0.60;;;0.60;;
59856;SDS011;45733;52.668;6.860;2023-08-20T05:10:02;0.57;;;0.57;;
59856;SDS011;45733;52.668;6.860;2023-08-20T05:12:28;0.50;;;0.50;;
59856;SDS011;45733;52.668;6.860;2023-08-20T05:14:54;0.50;;;0.50;;
59856;SDS011;45733;52.668;6.860;2023-08-20T05:17:20;0.50;;;0.50;;
59856;SDS011;45733;52.668;6.860;2023-08-20T05:19:46;0.50;;;0.50;;
59856;SDS011;45733;52.668;6.860;2023-08-20T05:22:11;0.60;;;0.60;;
59856;SDS011;45733;52.668;6.860;2023-08-20T05:24:37;0.60;;;0.60;;
59856;SDS011;45733;52.668;6.860;2023-08-20T05:27:07;0.90;;;0.90;;
59856;SDS011;45733;52.668;6.860;2023-08-20T05:29:35;1.13;;;1.13;;
59856;SDS011;45733;52.668;6.860;2023-08-20T05:32:02;1.02;;;1.02;;
59856;SDS011;45733;52.668;6.860;2023-08-20T05:34:28;0.90;;;0.90;;
59856;SDS011;45733;52.668;6.860;2023-08-20T05:36:53;0.93;;;0.93;;
59856;SDS011;45733;52.668;6.860;2023-08-20T05:39:19;0.77;;;0.77;;
59856;SDS011;45733;52.668;6.860;2023-08-20T05:41:45;0.80;;;0.80;;
59856;SDS011;45733;52.668;6.860;2023-08-20T05:44:10;1.05;;;0.80;;
59856;SDS011;45733;52.668;6.860;2023-08-20T05:46:36;0.90;;;0.90;;
59856;SDS011;45733;52.668;6.860;2023-08-20T05:49:02;0.80;;;0.80;;
59856;SDS011;45733;52.668;6.860;2023-08-20T05:51:28;0.80;;;0.80;;
59856;SDS011;45733;52.668;6.860;2023-08-20T05:53:53;0.90;;;0.90;;
59856;SDS011;45733;52.668;6.860;2023-08-20T05:56:19;0.88;;;0.88;;
59856;SDS011;45733;52.668;6.860;2023-08-20T05:58:45;0.90;;;0.90;;
59856;SDS011;45733;52.668;6.860;2023-08-20T06:01:10;0.90;;;0.90;;
59856;SDS011;45733;52.668;6.860;2023-08-20T06:03:36;0.90;;;0.90;;
59856;SDS011;45733;52.668;6.860;2023-08-20T06:06:02;0.93;;;0.93;;
59856;SDS011;45733;52.668;6.860;2023-08-20T06:08:28;0.90;;;0.90;;
59856;SDS011;45733;52.668;6.860;2023-08-20T06:10:53;0.80;;;0.80;;
59856;SDS011;45733;52.668;6.860;2023-08-20T06:13:19;0.80;;;0.80;;
59856;SDS011;45733;52.668;6.860;2023-08-20T06:15:45;0.80;;;0.80;;
59856;SDS011;45733;52.668;6.860;2023-08-20T06:18:10;0.90;;;0.90;;
59856;SDS011;45733;52.668;6.860;2023-08-20T06:20:36;0.85;;;0.85;;
59856;SDS011;45733;52.668;6.860;2023-08-20T06:23:02;0.80;;;0.80;;
59856;SDS011;45733;52.668;6.860;2023-08-20T06:25:28;0.80;;;0.80;;
59856;SDS011;45733;52.668;6.860;2023-08-20T06:27:54;0.70;;;0.70;;
59856;SDS011;45733;52.668;6.860;2023-08-20T06:30:19;0.60;;;0.60;;
59856;SDS011;45733;52.668;6.860;2023-08-20T06:32:45;0.60;;;0.60;;
59856;SDS011;45733;52.668;6.860;2023-08-20T06:35:11;0.63;;;0.63;;
59856;SDS011;45733;52.668;6.860;2023-08-20T06:37:38;0.70;;;0.70;;
59856;SDS011;45733;52.668;6.860;2023-08-20T06:40:05;0.60;;;0.60;;
59856;SDS011;45733;52.668;6.860;2023-08-20T06:42:32;0.70;;;0.70;;
59856;SDS011;45733;52.668;6.860;2023-08-20T06:44:57;0.60;;;0.60;;
59856;SDS011;45733;52.668;6.860;2023-08-20T06:47:23;0.50;;;0.50;;
59856;SDS011;45733;52.668;6.860;2023-08-20T06:49:49;0.50;;;0.50;;
59856;SDS011;45733;52.668;6.860;2023-08-20T06:52:15;0.60;;;0.60;;
59856;SDS011;45733;52.668;6.860;2023-08-20T06:54:41;0.50;;;0.50;;
59856;SDS011;45733;52.668;6.860;2023-08-20T06:57:06;0.60;;;0.60;;
59856;SDS011;45733;52.668;6.860;2023-08-20T06:59:32;0.60;;;0.60;;
59856;SDS011;45733;52.668;6.860;2023-08-20T07:01:58;0.60;;;0.60;;
59856;SDS011;45733;52.668;6.860;2023-08-20T07:04:23;0.50;;;0.50;;
59856;SDS011;45733;52.668;6.860;2023-08-20T07:06:50;0.50;;;0.50;;
59856;SDS011;45733;52.668;6.860;2023-08-20T07:09:16;0.50;;;0.50;;
59856;SDS011;45733;52.668;6.860;2023-08-20T07:11:42;0.50;;;0.50;;
59856;SDS011;45733;52.668;6.860;2023-08-20T07:14:07;0.50;;;0.50;;
59856;SDS011;45733;52.668;6.860;2023-08-20T07:16:33;0.50;;;0.50;;
59856;SDS011;45733;52.668;6.860;2023-08-20T07:18:59;0.50;;;0.50;;
59856;SDS011;45733;52.668;6.860;2023-08-20T07:21:24;0.50;;;0.50;;
59856;SDS011;45733;52.668;6.860;2023-08-20T07:23:50;0.40;;;0.40;;
59856;SDS011;45733;52.668;6.860;2023-08-20T07:26:16;0.50;;;0.50;;
59856;SDS011;45733;52.668;6.860;2023-08-20T07:28:41;0.50;;;0.50;;
59856;SDS011;45733;52.668;6.860;2023-08-20T07:31:23;0.50;;;0.50;;
59856;SDS011;45733;52.668;6.860;2023-08-20T07:33:49;0.50;;;0.50;;
59856;SDS011;45733;52.668;6.860;2023-08-20T07:36:15;0.50;;;0.50;;
59856;SDS011;45733;52.668;6.860;2023-08-20T07:38:42;1.55;;;0.57;;
59856;SDS011;45733;52.668;6.860;2023-08-20T07:41:09;0.45;;;0.45;;
59856;SDS011;45733;52.668;6.860;2023-08-20T07:43:37;0.50;;;0.50;;
59856;SDS011;45733;52.668;6.860;2023-08-20T07:46:03;0.50;;;0.50;;
59856;SDS011;45733;52.668;6.860;2023-08-20T07:48:30;0.50;;;0.50;;
59856;SDS011;45733;52.668;6.860;2023-08-20T07:50:55;0.73;;;0.73;;
59856;SDS011;45733;52.668;6.860;2023-08-20T07:53:21;0.50;;;0.50;;
59856;SDS011;45733;52.668;6.860;2023-08-20T07:55:47;0.47;;;0.47;;
59856;SDS011;45733;52.668;6.860;2023-08-20T07:58:13;0.60;;;0.60;;
59856;SDS011;45733;52.668;6.860;2023-08-20T08:00:38;0.30;;;0.30;;
59856;SDS011;45733;52.668;6.860;2023-08-20T08:03:04;0.60;;;0.60;;
59856;SDS011;45733;52.668;6.860;2023-08-20T08:05:33;0.50;;;0.50;;
59856;SDS011;45733;52.668;6.860;2023-08-20T08:07:58;0.30;;;0.30;;
59856;SDS011;45733;52.668;6.860;2023-08-20T08:10:24;0.40;;;0.40;;
59856;SDS011;45733;52.668;6.860;2023-08-20T08:12:50;0.30;;;0.30;;
59856;SDS011;45733;52.668;6.860;2023-08-20T08:15:15;0.50;;;0.50;;
59856;SDS011;45733;52.668;6.860;2023-08-20T08:17:42;0.30;;;0.30;;
59856;SDS011;45733;52.668;6.860;2023-08-20T08:20:08;0.30;;;0.30;;
59856;SDS011;45733;52.668;6.860;2023-08-20T08:22:33;0.30;;;0.30;;
59856;SDS011;45733;52.668;6.860;2023-08-20T08:24:59;0.40;;;0.40;;
59856;SDS011;45733;52.668;6.860;2023-08-20T08:27:25;0.30;;;0.30;;
59856;SDS011;45733;52.668;6.860;2023-08-20T08:29:50;0.30;;;0.30;;
59856;SDS011;45733;52.668;6.860;2023-08-20T08:32:16;0.38;;;0.38;;
59856;SDS011;45733;52.668;6.860;2023-08-20T08:34:42;0.38;;;0.38;;
59856;SDS011;45733;52.668;6.860;2023-08-20T08:37:07;0.30;;;0.30;;
59856;SDS011;45733;52.668;6.860;2023-08-20T08:39:33;0.40;;;0.40;;
59856;SDS011;45733;52.668;6.860;2023-08-20T08:42:03;0.32;;;0.32;;
59856;SDS011;45733;52.668;6.860;2023-08-20T08:44:34;0.30;;;0.30;;
59856;SDS011;45733;52.668;6.860;2023-08-20T08:47:01;0.30;;;0.30;;
59856;SDS011;45733;52.668;6.860;2023-08-20T08:49:28;0.40;;;0.40;;
59856;SDS011;45733;52.668;6.860;2023-08-20T08:51:59;0.30;;;0.30;;
59856;SDS011;45733;52.668;6.860;2023-08-20T08:54:25;0.30;;;0.30;;
59856;SDS011;45733;52.668;6.860;2023-08-20T08:56:51;0.30;;;0.30;;
59856;SDS011;45733;52.668;6.860;2023-08-20T08:59:18;0.30;;;0.30;;
59856;SDS011;45733;52.668;6.860;2023-08-20T09:01:44;0.40;;;0.40;;
59856;SDS011;45733;52.668;6.860;2023-08-20T09:04:10;0.30;;;0.30;;
59856;SDS011;45733;52.668;6.860;2023-08-20T09:09:12;0.57;;;0.52;;
59856;SDS011;45733;52.668;6.860;2023-08-20T09:11:38;0.30;;;0.30;;
59856;SDS011;45733;52.668;6.860;2023-08-20T09:14:04;0.30;;;0.30;;
59856;SDS011;45733;52.668;6.860;2023-08-20T09:16:30;0.30;;;0.30;;
59856;SDS011;45733;52.668;6.860;2023-08-20T09:18:58;0.30;;;0.30;;
59856;SDS011;45733;52.668;6.860;2023-08-20T09:21:28;0.25;;;0.25;;
59856;SDS011;45733;52.668;6.860;2023-08-20T09:23:56;0.30;;;0.30;;
59856;SDS011;45733;52.668;6.860;2023-08-20T09:26:25;0.30;;;0.30;;
59856;SDS011;45733;52.668;6.860;2023-08-20T09:28:53;0.30;;;0.30;;
59856;SDS011;45733;52.668;6.860;2023-08-20T09:31:20;0.35;;;0.35;;
59856;SDS011;45733;52.668;6.860;2023-08-20T09:34:02;0.30;;;0.30;;
59856;SDS011;45733;52.668;6.860;2023-08-20T09:36:32;0.30;;;0.30;;
59856;SDS011;45733;52.668;6.860;2023-08-20T09:38:59;0.30;;;0.30;;
59856;SDS011;45733;52.668;6.860;2023-08-20T09:41:28;0.30;;;0.30;;
59856;SDS011;45733;52.668;6.860;2023-08-20T09:43:58;0.30;;;0.30;;
59856;SDS011;45733;52.668;6.860;2023-08-20T09:46:26;0.30;;;0.30;;
59856;SDS011;45733;52.668;6.860;2023-08-20T09:48:55;0.30;;;0.30;;
59856;SDS011;45733;52.668;6.860;2023-08-20T09:51:25;0.30;;;0.30;;
59856;SDS011;45733;52.668;6.860;2023-08-20T09:56:28;0.30;;;0.30;;
59856;SDS011;45733;52.668;6.860;2023-08-20T09:58:59;0.30;;;0.30;;
59856;SDS011;45733;52.668;6.860;2023-08-20T10:01:26;0.30;;;0.30;;
59856;SDS011;45733;52.668;6.860;2023-08-20T10:03:53;0.30;;;0.30;;
59856;SDS011;45733;52.668;6.860;2023-08-20T10:06:19;0.30;;;0.30;;
59856;SDS011;45733;52.668;6.860;2023-08-20T10:08:46;0.30;;;0.30;;
59856;SDS011;45733;52.668;6.860;2023-08-20T10:11:12;0.30;;;0.30;;
59856;SDS011;45733;52.668;6.860;2023-08-20T10:13:38;0.30;;;0.30;;
59856;SDS011;45733;52.668;6.860;2023-08-20T10:16:04;0.30;;;0.30;;
59856;SDS011;45733;52.668;6.860;2023-08-20T10:18:30;0.30;;;0.30;;
59856;SDS011;45733;52.668;6.860;2023-08-20T10:20:59;0.30;;;0.30;;
59856;SDS011;45733;52.668;6.860;2023-08-20T10:23:26;0.30;;;0.30;;
59856;SDS011;45733;52.668;6.860;2023-08-20T10:25:52;0.30;;;0.30;;
59856;SDS011;45733;52.668;6.860;2023-08-20T10:28:20;0.30;;;0.30;;
59856;SDS011;45733;52.668;6.860;2023-08-20T10:31:02;0.30;;;0.30;;
59856;SDS011;45733;52.668;6.860;2023-08-20T10:33:34;0.30;;;0.30;;
59856;SDS011;45733;52.668;6.860;2023-08-20T10:36:13;0.30;;;0.30;;
59856;SDS011;45733;52.668;6.860;2023-08-20T10:38:47;0.30;;;0.30;;
59856;SDS011;45733;52.668;6.860;2023-08-20T10:41:15;0.30;;;0.30;;
59856;SDS011;45733;52.668;6.860;2023-08-20T10:43:52;0.30;;;0.30;;
59856;SDS011;45733;52.668;6.860;2023-08-20T10:46:22;0.30;;;0.30;;
59856;SDS011;45733;52.668;6.860;2023-08-20T10:49:01;0.30;;;0.30;;
59856;SDS011;45733;52.668;6.860;2023-08-20T10:51:37;0.30;;;0.30;;
59856;SDS011;45733;52.668;6.860;2023-08-20T10:54:18;0.30;;;0.30;;
59856;SDS011;45733;52.668;6.860;2023-08-20T10:56:57;0.30;;;0.30;;
59856;SDS011;45733;52.668;6.860;2023-08-20T10:59:26;0.30;;;0.30;;
59856;SDS011;45733;52.668;6.860;2023-08-20T11:01:55;0.30;;;0.30;;
59856;SDS011;45733;52.668;6.860;2023-08-20T11:04:25;0.28;;;0.28;;
59856;SDS011;45733;52.668;6.860;2023-08-20T11:06:53;0.30;;;0.30;;
59856;SDS011;45733;52.668;6.860;2023-08-20T11:09:21;0.30;;;0.30;;
59856;SDS011;45733;52.668;6.860;2023-08-20T11:11:57;0.30;;;0.30;;
59856;SDS011;45733;52.668;6.860;2023-08-20T11:14:23;0.30;;;0.30;;
59856;SDS011;45733;52.668;6.860;2023-08-20T11:16:50;0.30;;;0.30;;
59856;SDS011;45733;52.668;6.860;2023-08-20T11:19:19;0.30;;;0.30;;
59856;SDS011;45733;52.668;6.860;2023-08-20T11:21:51;0.30;;;0.30;;
59856;SDS011;45733;52.668;6.860;2023-08-20T11:24:22;0.30;;;0.30;;
59856;SDS011;45733;52.668;6.860;2023-08-20T11:26:48;0.30;;;0.30;;
59856;SDS011;45733;52.668;6.860;2023-08-20T11:29:24;0.30;;;0.30;;
59856;SDS011;45733;52.668;6.860;2023-08-20T11:31:51;0.30;;;0.30;;
59856;SDS011;45733;52.668;6.860;2023-08-20T11:34:20;0.30;;;0.30;;
59856;SDS011;45733;52.668;6.860;2023-08-20T11:36:46;0.30;;;0.30;;
59856;SDS011;45733;52.668;6.860;2023-08-20T11:39:30;0.30;;;0.30;;
59856;SDS011;45733;52.668;6.860;2023-08-20T11:42:24;0.30;;;0.30;;
59856;SDS011;45733;52.668;6.860;2023-08-20T11:44:50;0.30;;;0.30;;
59856;SDS011;45733;52.668;6.860;2023-08-20T11:47:20;0.30;;;0.30;;
59856;SDS011;45733;52.668;6.860;2023-08-20T11:49:45;0.30;;;0.30;;
59856;SDS011;45733;52.668;6.860;2023-08-20T11:52:11;0.30;;;0.30;;
59856;SDS011;45733;52.668;6.860;2023-08-20T11:54:38;0.30;;;0.30;;
59856;SDS011;45733;52.668;6.860;2023-08-20T11:57:13;0.30;;;0.30;;
59856;SDS011;45733;52.668;6.860;2023-08-20T11:59:42;0.30;;;0.30;;
59856;SDS011;45733;52.668;6.860;2023-08-20T12:02:08;0.22;;;0.22;;
59856;SDS011;45733;52.668;6.860;2023-08-20T12:04:37;0.20;;;0.20;;
59856;SDS011;45733;52.668;6.860;2023-08-20T12:07:14;0.20;;;0.20;;
59856;SDS011;45733;52.668;6.860;2023-08-20T12:09:55;0.30;;;0.30;;
59856;SDS011;45733;52.668;6.860;2023-08-20T12:12:30;0.30;;;0.30;;
59856;SDS011;45733;52.668;6.860;2023-08-20T12:15:21;0.30;;;0.30;;
59856;SDS011;45733;52.668;6.860;2023-08-20T12:17:57;0.30;;;0.30;;
59856;SDS011;45733;52.668;6.860;2023-08-20T12:20:34;0.30;;;0.30;;
59856;SDS011;45733;52.668;6.860;2023-08-20T12:23:05;0.30;;;0.30;;
59856;SDS011;45733;52.668;6.860;2023-08-20T12:25:34;0.38;;;0.38;;
59856;SDS011;45733;52.668;6.860;2023-08-20T12:28:01;0.30;;;0.30;;
59856;SDS011;45733;52.668;6.860;2023-08-20T12:30:29;0.20;;;0.20;;
59856;SDS011;45733;52.668;6.860;2023-08-20T12:33:00;0.30;;;0.30;;
59856;SDS011;45733;52.668;6.860;2023-08-20T12:35:26;0.30;;;0.30;;
59856;SDS011;45733;52.668;6.860;2023-08-20T12:37:51;0.20;;;0.20;;
59856;SDS011;45733;52.668;6.860;2023-08-20T12:40:17;0.30;;;0.30;;
59856;SDS011;45733;52.668;6.860;2023-08-20T12:42:43;0.30;;;0.30;;
59856;SDS011;45733;52.668;6.860;2023-08-20T12:45:12;0.22;;;0.22;;
59856;SDS011;45733;52.668;6.860;2023-08-20T12:47:38;0.30;;;0.30;;
59856;SDS011;45733;52.668;6.860;2023-08-20T12:52:56;0.30;;;0.30;;
59856;SDS011;45733;52.668;6.860;2023-08-20T12:55:22;0.35;;;0.35;;
59856;SDS011;45733;52.668;6.860;2023-08-20T12:57:56;0.30;;;0.30;;
59856;SDS011;45733;52.668;6.860;2023-08-20T13:02:50;0.30;;;0.30;;
59856;SDS011;45733;52.668;6.860;2023-08-20T13:05:16;0.40;;;0.40;;
59856;SDS011;45733;52.668;6.860;2023-08-20T13:07:45;0.30;;;0.30;;
59856;SDS011;45733;52.668;6.860;2023-08-20T13:10:11;0.30;;;0.30;;
59856;SDS011;45733;52.668;6.860;2023-08-20T13:12:41;0.30;;;0.30;;
59856;SDS011;45733;52.668;6.860;2023-08-20T13:15:26;0.30;;;0.30;;
59856;SDS011;45733;52.668;6.860;2023-08-20T13:17:52;0.30;;;0.30;;
59856;SDS011;45733;52.668;6.860;2023-08-20T13:20:18;0.30;;;0.30;;
59856;SDS011;45733;52.668;6.860;2023-08-20T13:22:49;0.30;;;0.30;;
59856;SDS011;45733;52.668;6.860;2023-08-20T13:25:16;0.30;;;0.30;;
59856;SDS011;45733;52.668;6.860;2023-08-20T13:27:48;0.30;;;0.30;;
59856;SDS011;45733;52.668;6.860;2023-08-20T13:30:14;0.30;;;0.30;;
59856;SDS011;45733;52.668;6.860;2023-08-20T13:32:42;0.30;;;0.30;;
59856;SDS011;45733;52.668;6.860;2023-08-20T13:35:08;0.20;;;0.20;;
59856;SDS011;45733;52.668;6.860;2023-08-20T13:37:34;0.30;;;0.30;;
59856;SDS011;45733;52.668;6.860;2023-08-20T13:40:00;0.30;;;0.30;;
59856;SDS011;45733;52.668;6.860;2023-08-20T13:42:26;0.30;;;0.30;;
59856;SDS011;45733;52.668;6.860;2023-08-20T13:44:52;0.20;;;0.20;;
59856;SDS011;45733;52.668;6.860;2023-08-20T13:47:18;0.30;;;0.30;;
59856;SDS011;45733;52.668;6.860;2023-08-20T13:49:46;0.30;;;0.30;;
59856;SDS011;45733;52.668;6.860;2023-08-20T13:52:11;0.30;;;0.30;;
59856;SDS011;45733;52.668;6.860;2023-08-20T13:54:43;0.30;;;0.30;;
59856;SDS011;45733;52.668;6.860;2023-08-20T13:57:09;0.30;;;0.30;;
59856;SDS011;45733;52.668;6.860;2023-08-20T13:59:38;0.30;;;0.30;;
59856;SDS011;45733;52.668;6.860;2023-08-20T14:02:06;0.30;;;0.30;;
59856;SDS011;45733;52.668;6.860;2023-08-20T14:04:48;0.20;;;0.20;;
59856;SDS011;45733;52.668;6.860;2023-08-20T14:07:15;0.20;;;0.20;;
59856;SDS011;45733;52.668;6.860;2023-08-20T14:09:42;0.30;;;0.30;;
59856;SDS011;45733;52.668;6.860;2023-08-20T14:12:08;0.30;;;0.30;;
59856;SDS011;45733;52.668;6.860;2023-08-20T14:14:34;0.30;;;0.30;;
59856;SDS011;45733;52.668;6.860;2023-08-20T14:17:00;0.30;;;0.30;;
59856;SDS011;45733;52.668;6.860;2023-08-20T14:19:25;0.30;;;0.30;;
59856;SDS011;45733;52.668;6.860;2023-08-20T14:21:51;0.30;;;0.30;;
59856;SDS011;45733;52.668;6.860;2023-08-20T14:24:17;0.30;;;0.30;;
59856;SDS011;45733;52.668;6.860;2023-08-20T14:26:46;0.30;;;0.30;;
59856;SDS011;45733;52.668;6.860;2023-08-20T14:29:11;0.30;;;0.30;;
59856;SDS011;45733;52.668;6.860;2023-08-20T14:31:37;0.30;;;0.30;;
59856;SDS011;45733;52.668;6.860;2023-08-20T14:34:03;0.30;;;0.30;;
59856;SDS011;45733;52.668;6.860;2023-08-20T14:36:29;0.30;;;0.30;;
59856;SDS011;45733;52.668;6.860;2023-08-20T14:38:56;0.30;;;0.30;;
59856;SDS011;45733;52.668;6.860;2023-08-20T14:41:28;0.20;;;0.20;;
59856;SDS011;45733;52.668;6.860;2023-08-20T14:43:54;0.30;;;0.30;;
59856;SDS011;45733;52.668;6.860;2023-08-20T14:46:19;0.32;;;0.32;;
59856;SDS011;45733;52.668;6.860;2023-08-20T14:48:45;0.30;;;0.30;;
59856;SDS011;45733;52.668;6.860;2023-08-20T14:51:11;0.30;;;0.30;;
59856;SDS011;45733;52.668;6.860;2023-08-20T14:53:37;0.30;;;0.30;;
59856;SDS011;45733;52.668;6.860;2023-08-20T14:56:03;0.30;;;0.30;;
59856;SDS011;45733;52.668;6.860;2023-08-20T14:58:29;0.30;;;0.30;;
59856;SDS011;45733;52.668;6.860;2023-08-20T15:00:58;0.30;;;0.30;;
59856;SDS011;45733;52.668;6.860;2023-08-20T15:03:24;0.30;;;0.30;;
59856;SDS011;45733;52.668;6.860;2023-08-20T15:05:49;0.30;;;0.30;;
59856;SDS011;45733;52.668;6.860;2023-08-20T15:08:15;0.20;;;0.20;;